Time;durP1;ratioP1;P1;durP2;ratioP2;P2;SDS_P1;SDS_P2;PMS_P1;PMS_P2;Temp;Humidity;BMP_temperature;BMP_pressure;BME280_temperature;BME280_humidity;BME280_pressure;Samples;Min_cycle;Max_cycle;Signal;HPM_P1;HPM_P2
2023/06/12 00:03:25;;;;;;;4.10;3.75;;;;;;;15.74;63.58;100210.00;10420097;28;20041;-72
2023/06/12 00:08:29;;;;;;;4.63;4.22;;;;;;;15.56;64.03;100212.59;10420049;28;20042;-71
2023/06/12 00:13:31;;;;;;;4.45;3.33;;;;;;;15.58;64.47;100205.47;10402645;28;20499;-72
2023/06/12 00:18:33;;;;;;;3.75;3.00;;;;;;;15.60;64.61;100210.66;10419626;28;20152;-72
2023/06/12 00:23:40;;;;;;;3.25;3.03;;;;;;;15.51;64.91;100213.78;10418644;28;20086;-72
2023/06/12 00:28:41;;;;;;;4.30;3.30;;;;;;;15.25;66.72;100205.31;10419601;28;20069;-72
2023/06/12 00:33:43;;;;;;;4.50;3.58;;;;;;;15.21;67.25;100205.53;10417976;28;20053;-72
2023/06/12 00:38:45;;;;;;;3.53;3.22;;;;;;;15.36;66.07;100204.75;10418626;28;20463;-72
2023/06/12 00:43:47;;;;;;;5.18;3.88;;;;;;;15.23;66.49;100206.28;10417626;28;20433;-72
2023/06/12 00:48:49;;;;;;;4.90;4.07;;;;;;;15.07;67.88;100211.47;10417843;28;20053;-72
2023/06/12 00:53:53;;;;;;;4.65;4.13;;;;;;;14.94;69.09;100205.06;10418620;28;20041;-72
2023/06/12 00:58:55;;;;;;;7.35;4.47;;;;;;;14.78;69.90;100200.47;10417951;28;20045;-71
2023/06/12 01:03:57;;;;;;;4.10;3.70;;;;;;;14.63;69.66;100194.09;10418053;28;20099;-72
2023/06/12 01:09:13;;;;;;;4.47;4.07;;;;;;;14.64;70.27;100203.75;10402582;28;20045;-72
2023/06/12 01:14:17;;;;;;;3.92;3.63;;;;;;;14.38;71.92;100204.88;10417021;28;20053;-72
2023/06/12 01:19:19;;;;;;;5.05;4.35;;;;;;;14.54;72.09;100207.75;10416589;28;20471;-71
2023/06/12 01:24:42;;;;;;;4.03;3.63;;;;;;;14.46;71.64;100196.63;10416138;28;20053;-71
2023/06/12 01:30:22;;;;;;;4.75;4.03;;;;;;;14.25;72.72;100195.78;10416290;28;20073;-72
2023/06/12 01:35:27;;;;;;;4.75;4.25;;;;;;;14.20;73.71;100187.19;10415941;28;20419;-71
2023/06/12 01:40:31;;;;;;;4.72;4.32;;;;;;;14.05;74.43;100199.31;10415637;28;20046;-71
2023/06/12 01:45:34;;;;;;;4.57;4.28;;;;;;;13.78;77.00;100193.44;10415474;28;20053;-72
2023/06/12 01:50:36;;;;;;;6.25;4.70;;;;;;;14.10;75.61;100199.09;10415878;28;20038;-72
2023/06/12 01:55:41;;;;;;;3.70;3.40;;;;;;;14.14;74.80;100212.13;10416712;28;20507;-72
2023/06/12 02:00:44;;;;;;;4.68;4.25;;;;;;;13.93;77.42;100214.84;10414995;28;20048;-72
2023/06/12 02:05:46;;;;;;;4.90;4.40;;;;;;;14.27;74.65;100206.31;10415084;28;20045;-72
2023/06/12 02:10:48;;;;;;;6.22;4.57;;;;;;;14.15;74.47;100205.06;10414654;28;20080;-72
2023/06/12 02:15:50;;;;;;;4.63;4.22;;;;;;;14.07;74.64;100208.03;10414234;28;20080;-72
2023/06/12 02:20:51;;;;;;;4.38;3.97;;;;;;;13.80;76.49;100203.91;10413995;28;20050;-71
2023/06/12 02:25:53;;;;;;;4.90;4.40;;;;;;;13.94;76.27;100204.19;10413642;28;20056;-72
2023/06/12 02:30:56;;;;;;;4.55;4.15;;;;;;;13.75;76.85;100209.41;10413325;28;20045;-72
2023/06/12 02:36:02;;;;;;;5.30;4.57;;;;;;;13.50;79.24;100212.22;10414161;28;20053;-72
2023/06/12 02:41:11;;;;;;;4.90;4.50;;;;;;;13.43;80.50;100216.03;10415817;28;20045;-72
2023/06/12 02:46:14;;;;;;;5.38;4.57;;;;;;;13.35;81.29;100224.25;10415212;28;20041;-72
2023/06/12 02:51:16;;;;;;;4.50;4.10;;;;;;;13.32;82.81;100228.78;10414004;28;20466;-72
2023/06/12 02:56:18;;;;;;;6.38;5.57;;;;;;;13.54;81.79;100228.78;10412540;28;20136;-72
2023/06/12 03:01:20;;;;;;;5.43;4.97;;;;;;;13.64;80.88;100235.41;10412742;28;20053;-72
2023/06/12 03:06:26;;;;;;;5.63;5.13;;;;;;;13.52;81.00;100231.50;10412034;28;20051;-72
2023/06/12 03:11:28;;;;;;;6.53;5.45;;;;;;;13.37;81.76;100246.19;10418785;28;20431;-72
2023/06/12 03:16:30;;;;;;;7.57;5.30;;;;;;;13.17;82.84;100240.78;10420712;28;20045;-72
2023/06/12 03:21:32;;;;;;;6.53;5.32;;;;;;;13.13;83.75;100247.09;10420950;28;20124;-72
2023/06/12 03:26:34;;;;;;;8.00;5.78;;;;;;;13.23;82.88;100245.00;10420955;28;20068;-72
2023/06/12 03:31:36;;;;;;;5.82;5.40;;;;;;;13.01;84.67;100251.06;10420495;28;20069;-72
2023/06/12 03:36:38;;;;;;;5.95;5.40;;;;;;;12.86;86.72;100249.03;10420413;28;20125;-72
2023/06/12 03:41:58;;;;;;;;;;;;;;;13.20;83.82;100250.38;10419574;28;20060;-72
2023/06/12 03:47:11;;;;;;;5.60;5.10;;;;;;;13.19;83.83;100251.28;10420655;28;20290;-71
2023/06/12 03:52:14;;;;;;;6.18;5.57;;;;;;;13.04;86.42;100256.22;10418540;28;20104;-72
2023/06/12 03:57:17;;;;;;;5.50;5.10;;;;;;;13.16;85.80;100249.63;10418222;28;20045;-72
2023/06/12 04:02:18;;;;;;;6.38;5.88;;;;;;;13.29;85.42;100252.69;10417815;28;20517;-72
2023/06/12 04:07:21;;;;;;;9.07;5.70;;;;;;;13.32;85.08;100256.03;10419225;28;20069;-72
2023/06/12 04:12:22;;;;;;;5.88;5.45;;;;;;;13.47;84.03;100254.59;10417968;28;20053;-72
2023/06/12 04:17:24;;;;;;;6.55;5.68;;;;;;;13.98;80.54;100253.34;10419074;28;20486;-73
2023/06/12 04:22:28;;;;;;;5.90;5.40;;;;;;;14.04;80.97;100254.91;10418356;28;20049;-72
2023/06/12 04:27:30;;;;;;;5.55;5.05;;;;;;;14.17;79.86;100260.53;10418089;28;20461;-72
2023/06/12 04:32:33;;;;;;;6.25;5.75;;;;;;;14.51;76.18;100254.63;10416662;28;20057;-72
2023/06/12 04:37:37;;;;;;;5.53;5.03;;;;;;;14.70;76.26;100258.19;10416274;28;20045;-73
2023/06/12 04:42:43;;;;;;;6.28;5.47;;;;;;;14.64;76.03;100267.25;10432236;22;20069;-70
2023/06/12 04:47:46;;;;;;;5.15;4.75;;;;;;;14.76;74.42;100267.63;10419861;28;20475;-71
2023/06/12 04:52:48;;;;;;;5.30;4.80;;;;;;;15.01;73.06;100259.44;10420253;28;20048;-71
2023/06/12 04:57:55;;;;;;;5.78;5.28;;;;;;;15.34;70.89;100276.38;10419484;28;20037;-70
2023/06/12 05:02:59;;;;;;;5.40;5.00;;;;;;;15.66;68.57;100270.47;10417788;28;20099;-71
2023/06/12 05:08:02;;;;;;;6.97;4.15;;;;;;;15.92;67.15;100272.69;10417246;28;20099;-70
2023/06/12 05:13:06;;;;;;;5.53;4.80;;;;;;;16.26;62.89;100276.31;10418577;28;20037;-71
2023/06/12 05:18:08;;;;;;;6.10;4.18;;;;;;;16.54;63.35;100278.38;10416856;28;20100;-71
2023/06/12 05:23:10;;;;;;;5.70;5.18;;;;;;;16.88;61.52;100275.69;10416977;28;20076;-71
2023/06/12 05:28:13;;;;;;;5.38;4.88;;;;;;;17.77;58.57;100275.19;10434683;28;20069;-71
2023/06/12 05:33:16;;;;;;;8.45;4.50;;;;;;;17.95;56.92;100278.59;10420803;28;20045;-72
2023/06/12 05:38:18;;;;;;;4.18;3.85;;;;;;;18.74;54.30;100280.97;10419115;28;20457;-69
2023/06/12 05:43:20;;;;;;;6.90;4.75;;;;;;;19.25;52.71;100281.31;10463977;28;20053;-71
2023/06/12 05:48:23;;;;;;;5.22;4.13;;;;;;;19.54;50.66;100277.63;10457313;28;20411;-70
2023/06/12 05:53:25;;;;;;;5.10;3.83;;;;;;;19.30;50.88;100274.75;10459356;28;20055;-71
2023/06/12 05:58:28;;;;;;;4.70;4.30;;;;;;;19.59;52.95;100283.50;10457159;28;20041;-70
2023/06/12 06:03:33;;;;;;;4.85;3.85;;;;;;;19.88;49.13;100286.97;10460617;28;20083;-70
2023/06/12 06:08:38;;;;;;;4.22;3.35;;;;;;;20.92;47.44;100279.84;10440772;28;20067;-71
2023/06/12 06:13:43;;;;;;;4.43;3.65;;;;;;;21.27;45.15;100280.97;10462739;28;20079;-72
2023/06/12 06:18:47;;;;;;;4.63;3.72;;;;;;;21.00;44.45;100276.63;10460839;28;20061;-70
2023/06/12 06:23:52;;;;;;;4.10;3.72;;;;;;;20.75;47.62;100282.00;10462835;28;20072;-71
2023/06/12 06:28:56;;;;;;;3.85;2.75;;;;;;;21.74;42.62;100292.72;10463732;28;20045;-71
2023/06/12 06:34:14;;;;;;;3.85;2.70;;;;;;;22.15;40.62;100289.63;10463981;28;20072;-72
2023/06/12 06:39:17;;;;;;;5.18;2.40;;;;;;;22.19;41.56;100292.94;10462785;28;20047;-71
2023/06/12 06:44:19;;;;;;;3.70;3.03;;;;;;;22.11;42.20;100306.84;10460039;28;20041;-71
2023/06/12 06:49:22;;;;;;;11.63;2.70;;;;;;;22.31;42.41;100294.66;10467185;28;20449;-70
2023/06/12 06:54:24;;;;;;;5.00;2.47;;;;;;;23.20;37.47;100296.63;10465226;28;20045;-71
2023/06/12 06:59:26;;;;;;;3.42;2.63;;;;;;;23.25;39.20;100297.13;10466588;28;20116;-71
2023/06/12 07:04:29;;;;;;;2.83;2.53;;;;;;;23.70;39.09;100298.88;10446569;28;20041;-71
2023/06/12 07:09:31;;;;;;;4.30;2.53;;;;;;;24.12;37.28;100300.66;10420744;28;20479;-71
2023/06/12 07:14:33;;;;;;;4.63;2.88;;;;;;;23.98;38.62;100300.13;10420936;28;20055;-70
2023/06/12 07:19:38;;;;;;;3.08;2.35;;;;;;;24.45;37.17;100300.66;10422932;28;20092;-70
2023/06/12 07:24:40;;;;;;;3.53;2.47;;;;;;;24.46;36.58;100291.63;10424991;28;20045;-71
2023/06/12 07:29:42;;;;;;;3.80;2.38;;;;;;;24.37;37.42;100298.63;10424645;28;20042;-71
2023/06/12 07:34:44;;;;;;;4.43;2.63;;;;;;;24.96;37.04;100297.97;10424410;28;20056;-71
2023/06/12 07:39:47;;;;;;;4.25;2.50;;;;;;;25.33;36.75;100294.75;10423327;28;20038;-70
2023/06/12 07:44:49;;;;;;;2.33;2.13;;;;;;;25.23;36.88;100291.16;10423311;28;20069;-71
2023/06/12 07:49:51;;;;;;;2.83;2.25;;;;;;;24.99;34.50;100283.41;10421989;28;20051;-71
2023/06/12 07:54:53;;;;;;;3.45;2.72;;;;;;;24.82;34.95;100283.03;10420046;28;20419;-71
2023/06/12 07:59:55;;;;;;;3.25;2.20;;;;;;;25.33;35.62;100281.31;10420520;28;20045;-71
2023/06/12 08:04:59;;;;;;;3.95;2.60;;;;;;;25.57;35.87;100291.69;10419950;28;20103;-71
2023/06/12 08:10:01;;;;;;;3.28;2.22;;;;;;;25.87;33.13;100280.84;10422187;28;20107;-71
2023/06/12 08:15:05;;;;;;;4.57;2.20;;;;;;;25.40;31.04;100277.91;10422144;28;20037;-71
2023/06/12 08:20:09;;;;;;;3.90;2.25;;;;;;;25.12;33.04;100274.16;10422346;28;20064;-71
2023/06/12 08:25:11;;;;;;;2.20;1.92;;;;;;;25.27;32.98;100271.91;10419344;28;20418;-71
2023/06/12 08:30:15;;;;;;;2.63;2.42;;;;;;;24.78;32.35;100270.00;10404079;28;20042;-71
2023/06/12 08:35:16;;;;;;;3.88;2.92;;;;;;;24.64;32.24;100277.44;10419123;28;20080;-71
2023/06/12 08:40:19;;;;;;;2.78;2.17;;;;;;;24.17;31.20;100271.59;10419619;28;20045;-70
2023/06/12 08:45:33;;;;;;;3.13;2.35;;;;;;;24.38;29.94;100268.94;10418677;28;20503;-71
2023/06/12 08:50:35;;;;;;;4.45;2.35;;;;;;;24.58;30.50;100261.84;10420393;28;20552;-71
2023/06/12 08:55:39;;;;;;;2.45;2.25;;;;;;;24.65;30.01;100276.44;10418837;28;20041;-70
2023/06/12 09:00:41;;;;;;;2.67;1.70;;;;;;;25.02;30.93;100272.41;10418276;28;20128;-71
2023/06/12 09:05:45;;;;;;;2.47;1.80;;;;;;;25.01;30.64;100276.91;10419996;28;20091;-71
2023/06/12 09:10:47;;;;;;;2.25;1.73;;;;;;;25.03;30.23;100258.81;10419608;28;20034;-71
2023/06/12 09:15:50;;;;;;;3.38;1.90;;;;;;;25.45;30.79;100264.03;10416749;28;20052;-71
2023/06/12 09:20:52;;;;;;;2.40;1.90;;;;;;;25.88;29.15;100273.63;10418236;28;20041;-71
2023/06/12 09:25:55;;;;;;;2.17;1.48;;;;;;;25.92;29.96;100269.66;10400387;28;20049;-71
2023/06/12 09:31:15;;;;;;;2.92;1.67;;;;;;;25.98;29.12;100270.91;10402238;28;20045;-71
2023/06/12 09:36:19;;;;;;;1.83;1.58;;;;;;;26.13;28.01;100270.38;10436802;28;20049;-71
2023/06/12 09:41:23;;;;;;;2.65;1.77;;;;;;;26.49;29.85;100262.53;10416165;28;20518;-71
2023/06/12 09:46:26;;;;;;;1.98;1.73;;;;;;;25.81;29.43;100281.44;10417297;28;20073;-71
2023/06/12 09:51:28;;;;;;;1.88;1.50;;;;;;;25.42;31.86;100275.94;10418145;28;20042;-71
2023/06/12 09:56:30;;;;;;;4.05;1.55;;;;;;;24.87;30.93;100267.34;10417342;28;20128;-71
2023/06/12 10:01:39;;;;;;;1.70;1.60;;;;;;;24.64;32.27;100271.22;10417491;28;20091;-71
2023/06/12 10:06:42;;;;;;;2.35;2.15;;;;;;;25.49;31.17;100253.84;10417787;28;20055;-72
2023/06/12 10:11:46;;;;;;;1.50;1.40;;;;;;;26.13;29.85;100262.28;10417215;28;20140;-72
2023/06/12 10:16:48;;;;;;;3.05;1.40;;;;;;;25.35;30.17;100255.09;10418226;28;20041;-73
2023/06/12 10:21:53;;;;;;;1.88;1.50;;;;;;;25.63;30.62;100251.63;10425363;28;20037;-73
2023/06/12 10:26:56;;;;;;;2.45;1.60;;;;;;;26.41;29.61;100255.13;10426498;28;20041;-72
2023/06/12 10:32:17;;;;;;;4.20;2.03;;;;;;;26.89;30.07;100239.84;10427251;28;20041;-72
2023/06/12 10:37:30;;;;;;;3.88;1.75;;;;;;;26.90;29.31;100258.56;10451008;28;20524;-72
2023/06/12 10:42:47;;;;;;;1.80;1.70;;;;;;;26.52;28.85;100253.28;10474254;22;20041;-73
2023/06/12 10:48:08;;;;;;;2.03;1.80;;;;;;;26.70;29.83;100231.84;10425023;28;20574;-71
2023/06/12 10:53:27;;;;;;;2.60;1.80;;;;;;;26.75;28.40;100241.16;10422484;28;20057;-72
2023/06/12 10:58:43;;;;;;;1.50;1.40;;;;;;;26.78;29.16;100231.91;10423399;28;20038;-72
2023/06/12 11:03:45;;;;;;;2.15;1.33;;;;;;;27.50;28.42;100225.75;10422540;28;20193;-72
2023/06/12 11:08:47;;;;;;;1.58;1.48;;;;;;;27.07;27.31;100218.31;10422872;28;20479;-73
2023/06/12 11:13:49;;;;;;;2.22;1.65;;;;;;;27.04;27.74;100214.03;10422589;28;20503;-72
2023/06/12 11:19:05;;;;;;;2.13;1.80;;;;;;;27.25;28.18;100205.72;10422009;28;20448;-71
2023/06/12 11:24:09;;;;;;;2.03;1.83;;;;;;;26.49;28.73;100205.94;10420391;28;20046;-72
2023/06/12 11:29:18;;;;;;;2.63;1.60;;;;;;;26.41;29.42;100193.16;10421482;28;20041;-72
2023/06/12 11:34:21;;;;;;;2.38;1.92;;;;;;;26.90;28.86;100198.38;10420593;28;20041;-72
2023/06/12 11:39:24;;;;;;;4.18;1.83;;;;;;;27.48;27.51;100199.88;10421189;28;20073;-71
2023/06/12 11:44:29;;;;;;;2.05;1.83;;;;;;;27.41;25.99;100202.38;10421217;28;20124;-72
2023/06/12 11:49:32;;;;;;;2.15;1.60;;;;;;;27.20;28.04;100185.59;10419327;28;20042;-73
2023/06/12 11:54:55;;;;;;;2.22;1.83;;;;;;;27.14;28.96;100178.97;10420670;28;20115;-73
2023/06/12 12:00:14;;;;;;;2.47;1.80;;;;;;;26.59;30.48;100187.00;10421374;28;20052;-72
2023/06/12 12:05:22;;;;;;;2.13;1.80;;;;;;;26.72;30.16;100168.66;10420730;28;20080;-72
2023/06/12 12:10:27;;;;;;;3.40;1.60;;;;;;;26.96;29.37;100175.34;10419027;28;20041;-72
2023/06/12 12:15:38;;;;;;;3.03;1.83;;;;;;;27.05;30.19;100167.22;10420134;28;20049;-72
2023/06/12 12:20:42;;;;;;;2.05;1.85;;;;;;;27.17;29.45;100155.22;10418240;28;20056;-72
2023/06/12 12:25:44;;;;;;;3.75;2.00;;;;;;;26.78;30.71;100167.19;10419206;28;20049;-72
2023/06/12 12:30:46;;;;;;;2.15;1.90;;;;;;;26.19;30.53;100169.25;10419773;28;20072;-72
2023/06/12 12:35:48;;;;;;;2.30;1.83;;;;;;;26.30;32.99;100149.38;10419549;28;20112;-72
2023/06/12 12:40:49;;;;;;;3.30;2.33;;;;;;;26.20;32.44;100144.00;10419364;28;20096;-72
2023/06/12 12:45:51;;;;;;;2.90;1.95;;;;;;;26.32;31.41;100137.44;10418919;28;20052;-72
2023/06/12 12:50:53;;;;;;;2.17;1.95;;;;;;;26.89;31.38;100138.19;10417990;28;20061;-72
2023/06/12 12:56:13;;;;;;;3.08;1.85;;;;;;;26.34;31.67;100138.16;10418766;28;20056;-71
2023/06/12 13:01:14;;;;;;;2.53;1.90;;;;;;;26.68;31.01;100140.28;10416905;28;20045;-72
2023/06/12 13:06:16;;;;;;;2.00;1.70;;;;;;;26.94;31.46;100140.44;10417706;28;20052;-71
2023/06/12 13:11:18;;;;;;;3.33;1.95;;;;;;;26.74;31.70;100145.09;10416919;28;20108;-72
2023/06/12 13:16:20;;;;;;;3.90;1.92;;;;;;;26.81;31.64;100130.00;10419868;28;20100;-72
2023/06/12 13:21:21;;;;;;;3.13;2.03;;;;;;;26.64;32.32;100142.44;10417570;28;20498;-72
2023/06/12 13:26:24;;;;;;;3.00;1.85;;;;;;;26.14;31.54;100131.97;10416788;28;20120;-72
2023/06/12 13:31:26;;;;;;;3.10;1.75;;;;;;;26.29;33.12;100131.47;10416548;28;20132;-73
2023/06/12 13:36:27;;;;;;;3.08;2.08;;;;;;;26.35;32.29;100139.84;10416528;28;20072;-71
2023/06/12 13:41:29;;;;;;;2.08;1.77;;;;;;;26.40;31.89;100144.78;10414605;28;20133;-72
2023/06/12 13:46:31;;;;;;;2.58;2.28;;;;;;;27.12;30.31;100135.94;10415923;28;20049;-71
2023/06/12 13:51:37;;;;;;;4.63;1.80;;;;;;;26.54;32.09;100138.94;10414465;28;20488;-70
2023/06/12 13:56:38;;;;;;;2.20;1.90;;;;;;;26.31;31.55;100130.34;10415050;28;20045;-71
2023/06/12 14:01:42;;;;;;;2.10;1.80;;;;;;;25.95;32.12;100131.19;10415568;28;20139;-71
2023/06/12 14:06:44;;;;;;;1.75;1.63;;;;;;;25.79;32.34;100131.75;10414724;28;20057;-71
2023/06/12 14:11:46;;;;;;;3.70;2.20;;;;;;;25.75;32.25;100125.78;10415483;28;20087;-72
2023/06/12 14:16:48;;;;;;;2.60;1.90;;;;;;;25.56;31.94;100125.81;10415446;28;20042;-72
2023/06/12 14:21:49;;;;;;;3.35;2.00;;;;;;;25.87;31.61;100108.50;10415445;28;20041;-72
2023/06/12 14:26:51;;;;;;;1.65;1.45;;;;;;;26.30;31.59;100111.66;10415504;28;20041;-72
2023/06/12 14:31:53;;;;;;;1.90;1.80;;;;;;;26.04;32.61;100112.28;10415826;28;20116;-72
2023/06/12 14:36:55;;;;;;;2.55;1.67;;;;;;;26.46;31.80;100111.88;10415409;28;20045;-72
2023/06/12 14:41:56;;;;;;;2.20;2.00;;;;;;;26.45;32.19;100107.47;10415964;28;20042;-72
2023/06/12 14:46:59;;;;;;;2.30;1.90;;;;;;;26.77;31.46;100101.63;10415339;28;20450;-71
2023/06/12 14:52:01;;;;;;;4.45;2.10;;;;;;;26.96;29.60;100111.47;10414854;28;20041;-73
2023/06/12 14:57:03;;;;;;;2.67;1.60;;;;;;;26.86;30.21;100105.25;10414230;28;20049;-73
2023/06/12 15:02:05;;;;;;;5.72;1.55;;;;;;;26.98;30.28;100100.50;10415285;28;20100;-74
2023/06/12 15:07:07;;;;;;;4.80;1.50;;;;;;;26.33;30.11;100098.69;10419728;28;20049;-72
2023/06/12 15:12:10;;;;;;;3.67;1.80;;;;;;;26.32;30.38;100093.47;10421896;28;20430;-73
2023/06/12 15:17:13;;;;;;;2.00;1.73;;;;;;;26.48;30.57;100093.72;10421680;28;20403;-74
2023/06/12 15:22:15;;;;;;;2.53;1.80;;;;;;;27.07;30.08;100096.91;10421040;28;20648;-72
2023/06/12 15:27:17;;;;;;;5.45;1.63;;;;;;;27.00;29.55;100101.19;10421634;28;20454;-72
2023/06/12 15:32:19;;;;;;;3.42;1.50;;;;;;;26.79;29.36;100086.16;10421403;28;20454;-73
2023/06/12 15:37:21;;;;;;;2.53;1.85;;;;;;;27.03;29.50;100095.50;10421780;28;20080;-73
2023/06/12 15:42:23;;;;;;;3.38;1.67;;;;;;;27.12;29.04;100090.06;10420442;28;20040;-73
2023/06/12 15:47:24;;;;;;;3.25;1.98;;;;;;;26.74;29.15;100085.78;10420293;28;20056;-74
2023/06/12 15:52:26;;;;;;;1.95;1.58;;;;;;;27.04;29.40;100086.41;10418526;28;20104;-74
2023/06/12 15:57:28;;;;;;;2.05;1.80;;;;;;;26.59;29.89;100081.88;10420374;28;20046;-73
2023/06/12 16:02:30;;;;;;;2.33;1.77;;;;;;;26.49;29.33;100084.63;10419375;28;20038;-73
2023/06/12 16:07:34;;;;;;;2.60;1.90;;;;;;;25.92;29.21;100081.97;10418824;28;20466;-73
2023/06/12 16:12:35;;;;;;;1.90;1.65;;;;;;;25.79;30.18;100078.75;10419032;28;20140;-74
2023/06/12 16:17:37;;;;;;;3.72;1.65;;;;;;;25.66;30.62;100083.56;10418609;28;20069;-73
2023/06/12 16:22:39;;;;;;;4.00;2.25;;;;;;;25.21;30.43;100086.88;10418708;28;20037;-72
2023/06/12 16:27:42;;;;;;;4.00;1.63;;;;;;;25.14;31.07;100086.56;10418478;28;20096;-72
2023/06/12 16:32:44;;;;;;;3.50;1.83;;;;;;;25.24;30.72;100086.59;10418304;28;20048;-72
2023/06/12 16:37:47;;;;;;;3.03;1.80;;;;;;;25.27;31.14;100091.66;10416868;28;20457;-73
2023/06/12 16:42:49;;;;;;;2.60;1.70;;;;;;;24.92;31.57;100086.78;10432307;23;20034;-73
2023/06/12 16:47:51;;;;;;;3.10;1.77;;;;;;;24.73;31.88;100084.94;10418875;28;20049;-72
2023/06/12 16:52:53;;;;;;;6.05;1.90;;;;;;;24.17;31.98;100078.22;10421300;28;20128;-74
2023/06/12 16:57:54;;;;;;;2.50;1.80;;;;;;;23.99;32.49;100087.03;10420479;28;20048;-71
2023/06/12 17:02:58;;;;;;;2.53;1.70;;;;;;;23.65;32.57;100085.44;10420727;28;20037;-71
2023/06/12 17:08:01;;;;;;;2.60;1.67;;;;;;;23.63;33.28;100090.03;10422795;28;20072;-72
2023/06/12 17:13:03;;;;;;;2.20;1.77;;;;;;;23.51;32.96;100088.41;10420376;28;20046;-72
2023/06/12 17:18:05;;;;;;;2.95;1.80;;;;;;;23.52;32.30;100083.88;10418421;28;20128;-72
2023/06/12 17:23:08;;;;;;;2.85;1.90;;;;;;;23.43;32.36;100088.19;10418719;28;20043;-73
2023/06/12 17:28:10;;;;;;;2.92;1.73;;;;;;;23.33;32.92;100079.22;10415759;28;20405;-72
2023/06/12 17:33:12;;;;;;;3.90;1.77;;;;;;;23.28;32.00;100081.44;10418586;28;20103;-73
2023/06/12 17:38:14;;;;;;;3.58;2.10;;;;;;;23.37;31.68;100078.84;10418844;28;20064;-72
2023/06/12 17:43:16;;;;;;;1.88;1.77;;;;;;;23.33;31.20;100074.72;10420222;28;20446;-72
2023/06/12 17:48:18;;;;;;;6.05;2.25;;;;;;;23.15;31.86;100077.13;10418355;28;20079;-74
2023/06/12 17:53:20;;;;;;;5.30;2.10;;;;;;;23.15;30.66;100077.13;10418012;28;20120;-71
2023/06/12 17:58:22;;;;;;;3.40;1.65;;;;;;;23.12;31.04;100077.38;10417041;28;20050;-73
2023/06/12 18:03:24;;;;;;;3.35;1.70;;;;;;;23.09;31.58;100074.09;10417774;28;20084;-71
2023/06/12 18:08:25;;;;;;;4.78;1.70;;;;;;;23.00;32.35;100070.34;10418969;28;20048;-71
2023/06/12 18:13:28;;;;;;;2.15;1.60;;;;;;;22.86;32.32;100073.28;10420359;28;20115;-71
2023/06/12 18:18:29;;;;;;;5.35;2.00;;;;;;;22.78;32.65;100073.06;10418248;28;20438;-72
2023/06/12 18:23:32;;;;;;;2.55;1.80;;;;;;;22.42;33.51;100067.88;10418059;28;20534;-72
2023/06/12 18:28:34;;;;;;;7.90;1.83;;;;;;;22.60;32.61;100070.06;10416447;28;20054;-73
2023/06/12 18:33:36;;;;;;;2.80;1.60;;;;;;;22.43;33.55;100063.38;10415545;28;20111;-72
2023/06/12 18:38:38;;;;;;;1.70;1.60;;;;;;;22.43;33.33;100055.34;10416974;28;20042;-72
2023/06/12 18:43:40;;;;;;;5.60;2.00;;;;;;;22.02;34.59;100054.13;10425006;28;20041;-72
2023/06/12 18:48:42;;;;;;;6.95;2.05;;;;;;;22.15;34.13;100052.19;10426556;28;20038;-72
2023/06/12 18:53:44;;;;;;;2.63;1.80;;;;;;;22.20;33.91;100061.69;10426910;28;20041;-72
2023/06/12 18:58:46;;;;;;;3.03;1.90;;;;;;;22.05;34.42;100059.25;10425776;28;20096;-73
2023/06/12 19:03:48;;;;;;;4.13;2.08;;;;;;;21.67;36.42;100067.59;10424081;28;20053;-72
2023/06/12 19:08:50;;;;;;;1.80;1.70;;;;;;;21.51;35.76;100065.22;10427225;28;20099;-72
2023/06/12 19:13:53;;;;;;;2.25;1.55;;;;;;;21.37;35.91;100063.59;10424582;28;20044;-72
2023/06/12 19:18:55;;;;;;;3.28;1.77;;;;;;;21.24;36.60;100070.81;10423561;28;20064;-72
2023/06/12 19:23:57;;;;;;;2.63;2.20;;;;;;;21.05;36.84;100062.50;10422765;28;20540;-71
2023/06/12 19:28:59;;;;;;;2.90;2.47;;;;;;;21.03;37.56;100064.41;10421636;28;20048;-72
2023/06/12 19:34:02;;;;;;;3.58;1.80;;;;;;;21.10;37.49;100068.34;10423823;28;20053;-73
2023/06/12 19:39:06;;;;;;;5.18;2.00;;;;;;;20.85;38.91;100074.66;10422176;28;20553;-72
2023/06/12 19:44:08;;;;;;;6.32;2.55;;;;;;;20.74;40.50;100072.78;10422385;28;20056;-72
2023/06/12 19:49:10;;;;;;;3.83;2.53;;;;;;;20.66;41.80;100080.50;10421480;28;20045;-72
2023/06/12 19:54:12;;;;;;;12.45;2.78;;;;;;;20.30;41.96;100086.63;10420462;28;20053;-73
2023/06/12 19:59:13;;;;;;;5.50;2.58;;;;;;;20.08;43.48;100080.16;10421062;28;20048;-72
2023/06/12 20:04:15;;;;;;;3.72;3.25;;;;;;;19.76;43.60;100073.56;10420303;28;20079;-72
2023/06/12 20:09:17;;;;;;;4.25;2.50;;;;;;;19.64;44.11;100065.44;10422607;28;20100;-72
2023/06/12 20:14:20;;;;;;;5.15;2.65;;;;;;;19.43;45.10;100066.84;10420613;28;20133;-72
2023/06/12 20:19:22;;;;;;;5.82;2.70;;;;;;;19.28;45.68;100073.25;10421887;28;20077;-73
2023/06/12 20:24:26;;;;;;;6.70;2.90;;;;;;;19.05;46.93;100066.78;10421671;28;20454;-73
2023/06/12 20:29:34;;;;;;;3.50;3.10;;;;;;;18.89;47.21;100062.47;10420441;28;20392;-72
2023/06/12 20:34:36;;;;;;;4.03;2.90;;;;;;;18.54;48.52;100067.38;10421474;28;20132;-73
2023/06/12 20:39:38;;;;;;;5.18;2.58;;;;;;;18.41;49.41;100069.13;10421205;28;20037;-71
2023/06/12 20:44:40;;;;;;;5.15;2.42;;;;;;;18.22;50.05;100065.91;10421492;28;20045;-73
2023/06/12 20:49:42;;;;;;;3.30;2.13;;;;;;;18.10;50.24;100060.41;10421097;28;20037;-73
2023/06/12 20:54:44;;;;;;;3.65;2.53;;;;;;;18.14;50.33;100058.41;10419214;28;20049;-72
2023/06/12 20:59:46;;;;;;;3.45;3.10;;;;;;;18.00;50.99;100056.59;10420058;28;20056;-72
2023/06/12 21:04:48;;;;;;;3.15;2.40;;;;;;;17.74;51.87;100060.03;10418527;28;20069;-73
2023/06/12 21:09:50;;;;;;;5.18;3.00;;;;;;;17.53;52.79;100049.72;10420443;28;20037;-71
2023/06/12 21:14:52;;;;;;;5.07;2.88;;;;;;;17.65;53.37;100056.94;10418555;28;20128;-72
2023/06/12 21:19:54;;;;;;;9.05;2.88;;;;;;;17.52;53.29;100048.00;10420339;28;20080;-72
2023/06/12 21:24:56;;;;;;;4.28;2.67;;;;;;;17.40;53.55;100052.25;10418354;28;20575;-73
2023/06/12 21:30:01;;;;;;;2.65;2.33;;;;;;;17.18;54.88;100066.88;10421891;28;20048;-72
2023/06/12 21:35:04;;;;;;;3.58;2.67;;;;;;;17.30;53.75;100060.84;10417693;28;20052;-71
2023/06/12 21:40:07;;;;;;;4.18;2.53;;;;;;;17.01;54.52;100052.81;10418393;28;20187;-71
2023/06/12 21:45:10;;;;;;;3.67;3.10;;;;;;;16.66;56.07;100046.81;10417607;28;20076;-72
2023/06/12 21:50:12;;;;;;;3.13;2.70;;;;;;;16.54;58.06;100051.00;10416891;28;20566;-72
2023/06/12 21:55:15;;;;;;;5.22;2.70;;;;;;;16.54;57.63;100051.00;10419047;28;20590;-72
2023/06/12 22:00:18;;;;;;;5.95;3.63;;;;;;;16.75;57.68;100043.69;10419126;28;20037;-72
2023/06/12 22:05:19;;;;;;;3.03;2.83;;;;;;;16.69;58.29;100043.13;10419594;28;20113;-73
2023/06/12 22:10:21;;;;;;;4.07;3.17;;;;;;;16.79;58.32;100055.84;10417079;28;20463;-72
2023/06/12 22:15:23;;;;;;;3.38;2.83;;;;;;;16.53;59.06;100043.16;10419455;28;20049;-72
2023/06/12 22:20:25;;;;;;;2.55;2.35;;;;;;;16.18;59.63;100040.66;10426726;28;20065;-71
2023/06/12 22:25:27;;;;;;;3.40;2.80;;;;;;;16.29;59.39;100032.97;10425048;28;20064;-71
2023/06/12 22:30:29;;;;;;;4.78;3.25;;;;;;;15.99;60.69;100032.00;10426720;28;20443;-73
2023/06/12 22:35:30;;;;;;;3.15;2.85;;;;;;;15.97;60.12;100033.84;10424609;28;20068;-73
2023/06/12 22:40:32;;;;;;;6.05;2.78;;;;;;;16.02;60.38;100031.81;10423857;28;20068;-71
2023/06/12 22:45:34;;;;;;;2.95;2.67;;;;;;;15.84;61.47;100034.50;10438072;22;20049;-69
2023/06/12 22:50:36;;;;;;;3.17;2.88;;;;;;;15.69;62.26;100032.69;10422718;28;20065;-69
2023/06/12 22:55:40;;;;;;;3.45;2.58;;;;;;;15.73;61.94;100030.75;10422867;28;20041;-69
2023/06/12 23:00:42;;;;;;;3.13;2.63;;;;;;;15.66;62.86;100024.91;10420703;28;20045;-70
2023/06/12 23:05:48;;;;;;;3.15;2.70;;;;;;;15.57;62.87;100031.50;10421852;28;20095;-69
2023/06/12 23:10:54;;;;;;;3.00;2.80;;;;;;;15.67;62.12;100023.09;10422006;28;20044;-69
2023/06/12 23:15:56;;;;;;;6.40;3.03;;;;;;;15.42;63.29;100013.78;10421456;28;20041;-69